sensor_id;sensor_type;location;lat;lon;timestamp;P1;durP1;ratioP1;P2;durP2;ratioP2
51479;SDS011;37556;44.570;18.612;2023-01-16T00:00:08;11.80;;;10.63;;
51479;SDS011;37556;44.570;18.612;2023-01-16T00:02:34;17.70;;;11.82;;
51479;SDS011;37556;44.570;18.612;2023-01-16T00:05:00;21.73;;;10.18;;
51479;SDS011;37556;44.570;18.612;2023-01-16T00:07:26;22.90;;;14.82;;
51479;SDS011;37556;44.570;18.612;2023-01-16T00:09:53;13.48;;;10.13;;
51479;SDS011;37556;44.570;18.612;2023-01-16T00:12:19;19.00;;;12.63;;
51479;SDS011;37556;44.570;18.612;2023-01-16T00:14:45;23.10;;;10.77;;
51479;SDS011;37556;44.570;18.612;2023-01-16T00:17:11;25.33;;;15.90;;
51479;SDS011;37556;44.570;18.612;2023-01-16T00:19:37;15.52;;;11.23;;
51479;SDS011;37556;44.570;18.612;2023-01-16T00:22:03;14.32;;;12.13;;
51479;SDS011;37556;44.570;18.612;2023-01-16T00:24:29;14.50;;;11.82;;
51479;SDS011;37556;44.570;18.612;2023-01-16T00:26:55;30.85;;;13.13;;
51479;SDS011;37556;44.570;18.612;2023-01-16T00:29:22;30.38;;;16.48;;
51479;SDS011;37556;44.570;18.612;2023-01-16T00:31:48;25.42;;;13.32;;
51479;SDS011;37556;44.570;18.612;2023-01-16T00:34:14;18.50;;;13.27;;
51479;SDS011;37556;44.570;18.612;2023-01-16T00:36:40;19.63;;;11.23;;
51479;SDS011;37556;44.570;18.612;2023-01-16T00:39:06;17.40;;;12.05;;
51479;SDS011;37556;44.570;18.612;2023-01-16T00:41:32;22.45;;;11.15;;
51479;SDS011;37556;44.570;18.612;2023-01-16T00:43:58;22.58;;;16.25;;
51479;SDS011;37556;44.570;18.612;2023-01-16T00:46:25;32.90;;;14.15;;
51479;SDS011;37556;44.570;18.612;2023-01-16T00:48:51;15.50;;;13.85;;
51479;SDS011;37556;44.570;18.612;2023-01-16T00:51:17;17.63;;;8.93;;
51479;SDS011;37556;44.570;18.612;2023-01-16T00:53:44;19.05;;;9.05;;
51479;SDS011;37556;44.570;18.612;2023-01-16T00:56:10;19.20;;;10.73;;
51479;SDS011;37556;44.570;18.612;2023-01-16T00:58:36;18.77;;;11.27;;
51479;SDS011;37556;44.570;18.612;2023-01-16T01:01:02;11.90;;;7.07;;
51479;SDS011;37556;44.570;18.612;2023-01-16T01:03:28;27.63;;;10.48;;
51479;SDS011;37556;44.570;18.612;2023-01-16T01:05:54;15.48;;;8.48;;
51479;SDS011;37556;44.570;18.612;2023-01-16T01:08:20;12.98;;;6.93;;
51479;SDS011;37556;44.570;18.612;2023-01-16T01:10:47;9.85;;;8.85;;
51479;SDS011;37556;44.570;18.612;2023-01-16T01:13:13;17.77;;;9.98;;
51479;SDS011;37556;44.570;18.612;2023-01-16T01:15:39;6.32;;;5.55;;
51479;SDS011;37556;44.570;18.612;2023-01-16T01:18:05;20.52;;;12.38;;
51479;SDS011;37556;44.570;18.612;2023-01-16T01:20:31;9.27;;;6.38;;
51479;SDS011;37556;44.570;18.612;2023-01-16T01:22:57;8.32;;;7.43;;
51479;SDS011;37556;44.570;18.612;2023-01-16T01:25:24;11.93;;;8.02;;
51479;SDS011;37556;44.570;18.612;2023-01-16T01:27:50;12.70;;;8.70;;
51479;SDS011;37556;44.570;18.612;2023-01-16T01:32:42;6.40;;;4.50;;
51479;SDS011;37556;44.570;18.612;2023-01-16T01:35:09;13.18;;;4.97;;
51479;SDS011;37556;44.570;18.612;2023-01-16T01:37:35;8.93;;;8.23;;
51479;SDS011;37556;44.570;18.612;2023-01-16T01:42:27;5.15;;;4.75;;
51479;SDS011;37556;44.570;18.612;2023-01-16T01:45:16;10.50;;;6.20;;
51479;SDS011;37556;44.570;18.612;2023-01-16T01:52:51;5.88;;;5.45;;
51479;SDS011;37556;44.570;18.612;2023-01-16T01:55:18;12.63;;;6.03;;
51479;SDS011;37556;44.570;18.612;2023-01-16T01:57:47;9.10;;;7.78;;
51479;SDS011;37556;44.570;18.612;2023-01-16T02:00:18;11.52;;;6.70;;
51479;SDS011;37556;44.570;18.612;2023-01-16T02:02:51;22.95;;;9.20;;
51479;SDS011;37556;44.570;18.612;2023-01-16T02:05:29;9.48;;;7.50;;
51479;SDS011;37556;44.570;18.612;2023-01-16T02:07:56;7.80;;;7.00;;
51479;SDS011;37556;44.570;18.612;2023-01-16T02:10:34;4.05;;;3.83;;
51479;SDS011;37556;44.570;18.612;2023-01-16T02:13:03;15.77;;;6.63;;
51479;SDS011;37556;44.570;18.612;2023-01-16T02:17:55;13.10;;;7.45;;
51479;SDS011;37556;44.570;18.612;2023-01-16T02:30:59;19.88;;;12.15;;
51479;SDS011;37556;44.570;18.612;2023-01-16T02:36:17;15.77;;;8.10;;
51479;SDS011;37556;44.570;18.612;2023-01-16T02:41:21;7.00;;;5.82;;
51479;SDS011;37556;44.570;18.612;2023-01-16T02:44:00;17.27;;;10.00;;
51479;SDS011;37556;44.570;18.612;2023-01-16T02:46:30;21.15;;;8.70;;
51479;SDS011;37556;44.570;18.612;2023-01-16T02:49:03;19.40;;;9.02;;
51479;SDS011;37556;44.570;18.612;2023-01-16T02:51:47;9.73;;;6.70;;
51479;SDS011;37556;44.570;18.612;2023-01-16T02:54:20;10.50;;;6.78;;
51479;SDS011;37556;44.570;18.612;2023-01-16T02:56:51;8.77;;;6.15;;
51479;SDS011;37556;44.570;18.612;2023-01-16T02:59:19;9.80;;;6.00;;
51479;SDS011;37556;44.570;18.612;2023-01-16T03:01:49;7.65;;;4.85;;
51479;SDS011;37556;44.570;18.612;2023-01-16T03:14:46;19.25;;;2.75;;
51479;SDS011;37556;44.570;18.612;2023-01-16T03:29:57;5.65;;;4.25;;
51479;SDS011;37556;44.570;18.612;2023-01-16T03:32:29;1.90;;;1.83;;
51479;SDS011;37556;44.570;18.612;2023-01-16T03:35:08;4.60;;;4.32;;
51479;SDS011;37556;44.570;18.612;2023-01-16T03:37:38;7.40;;;2.92;;
51479;SDS011;37556;44.570;18.612;2023-01-16T03:40:07;7.03;;;2.90;;
51479;SDS011;37556;44.570;18.612;2023-01-16T03:42:38;3.58;;;2.45;;
51479;SDS011;37556;44.570;18.612;2023-01-16T03:45:08;3.72;;;3.38;;
51479;SDS011;37556;44.570;18.612;2023-01-16T03:47:36;2.15;;;1.95;;
51479;SDS011;37556;44.570;18.612;2023-01-16T03:50:05;7.78;;;1.83;;
51479;SDS011;37556;44.570;18.612;2023-01-16T03:52:40;2.70;;;1.92;;
51479;SDS011;37556;44.570;18.612;2023-01-16T03:55:16;5.20;;;2.53;;
51479;SDS011;37556;44.570;18.612;2023-01-16T03:58:19;3.67;;;2.33;;
51479;SDS011;37556;44.570;18.612;2023-01-16T04:03:27;9.55;;;4.05;;
51479;SDS011;37556;44.570;18.612;2023-01-16T04:06:06;0.70;;;0.65;;
51479;SDS011;37556;44.570;18.612;2023-01-16T04:08:35;5.20;;;2.80;;
51479;SDS011;37556;44.570;18.612;2023-01-16T04:11:02;9.45;;;4.45;;
51479;SDS011;37556;44.570;18.612;2023-01-16T04:13:31;2.42;;;2.10;;
51479;SDS011;37556;44.570;18.612;2023-01-16T04:15:58;5.47;;;1.40;;
51479;SDS011;37556;44.570;18.612;2023-01-16T04:18:28;2.78;;;1.20;;
51479;SDS011;37556;44.570;18.612;2023-01-16T04:20:55;1.27;;;1.27;;
51479;SDS011;37556;44.570;18.612;2023-01-16T04:23:22;2.78;;;2.67;;
51479;SDS011;37556;44.570;18.612;2023-01-16T04:25:48;7.28;;;2.42;;
51479;SDS011;37556;44.570;18.612;2023-01-16T04:28:14;2.00;;;1.77;;
51479;SDS011;37556;44.570;18.612;2023-01-16T04:30:40;1.98;;;1.58;;
51479;SDS011;37556;44.570;18.612;2023-01-16T04:33:06;7.32;;;4.43;;
51479;SDS011;37556;44.570;18.612;2023-01-16T04:35:32;7.22;;;3.90;;
51479;SDS011;37556;44.570;18.612;2023-01-16T04:37:59;1.85;;;1.67;;
51479;SDS011;37556;44.570;18.612;2023-01-16T04:40:25;3.63;;;2.72;;
51479;SDS011;37556;44.570;18.612;2023-01-16T04:42:51;11.05;;;7.00;;
51479;SDS011;37556;44.570;18.612;2023-01-16T04:45:19;14.90;;;6.10;;
51479;SDS011;37556;44.570;18.612;2023-01-16T04:47:46;8.23;;;4.05;;
51479;SDS011;37556;44.570;18.612;2023-01-16T04:50:12;2.97;;;2.70;;
51479;SDS011;37556;44.570;18.612;2023-01-16T04:52:39;6.30;;;3.58;;
51479;SDS011;37556;44.570;18.612;2023-01-16T04:55:06;10.23;;;4.95;;
51479;SDS011;37556;44.570;18.612;2023-01-16T04:59:58;1.77;;;1.00;;
51479;SDS011;37556;44.570;18.612;2023-01-16T05:02:24;2.00;;;1.90;;
51479;SDS011;37556;44.570;18.612;2023-01-16T05:04:50;1.05;;;0.98;;
51479;SDS011;37556;44.570;18.612;2023-01-16T05:07:16;3.00;;;1.20;;
51479;SDS011;37556;44.570;18.612;2023-01-16T05:09:42;1.48;;;0.85;;
51479;SDS011;37556;44.570;18.612;2023-01-16T05:12:08;3.22;;;1.52;;
51479;SDS011;37556;44.570;18.612;2023-01-16T05:14:34;6.35;;;3.13;;
51479;SDS011;37556;44.570;18.612;2023-01-16T05:17:01;4.45;;;2.28;;
51479;SDS011;37556;44.570;18.612;2023-01-16T05:19:27;0.93;;;0.93;;
51479;SDS011;37556;44.570;18.612;2023-01-16T05:21:53;0.65;;;0.65;;
51479;SDS011;37556;44.570;18.612;2023-01-16T05:24:19;2.08;;;1.38;;
51479;SDS011;37556;44.570;18.612;2023-01-16T05:26:45;1.48;;;1.33;;
51479;SDS011;37556;44.570;18.612;2023-01-16T05:29:11;2.65;;;1.35;;
51479;SDS011;37556;44.570;18.612;2023-01-16T05:31:37;3.17;;;2.83;;
51479;SDS011;37556;44.570;18.612;2023-01-16T05:34:03;0.95;;;0.77;;
51479;SDS011;37556;44.570;18.612;2023-01-16T05:36:29;1.58;;;1.48;;
51479;SDS011;37556;44.570;18.612;2023-01-16T05:38:55;2.85;;;2.55;;
51479;SDS011;37556;44.570;18.612;2023-01-16T05:41:22;4.00;;;1.65;;
51479;SDS011;37556;44.570;18.612;2023-01-16T05:43:48;5.15;;;4.20;;
51479;SDS011;37556;44.570;18.612;2023-01-16T05:46:14;5.63;;;4.35;;
51479;SDS011;37556;44.570;18.612;2023-01-16T05:48:40;3.55;;;2.38;;
51479;SDS011;37556;44.570;18.612;2023-01-16T05:51:06;8.40;;;4.32;;
51479;SDS011;37556;44.570;18.612;2023-01-16T05:53:32;4.13;;;3.72;;
51479;SDS011;37556;44.570;18.612;2023-01-16T05:55:58;5.13;;;4.72;;
51479;SDS011;37556;44.570;18.612;2023-01-16T05:58:26;3.97;;;3.60;;
51479;SDS011;37556;44.570;18.612;2023-01-16T06:00:52;14.00;;;3.03;;
51479;SDS011;37556;44.570;18.612;2023-01-16T06:03:18;4.85;;;2.67;;
51479;SDS011;37556;44.570;18.612;2023-01-16T06:05:45;9.13;;;4.72;;
51479;SDS011;37556;44.570;18.612;2023-01-16T06:08:12;3.00;;;2.28;;
51479;SDS011;37556;44.570;18.612;2023-01-16T06:10:38;3.13;;;2.30;;
51479;SDS011;37556;44.570;18.612;2023-01-16T06:13:04;11.90;;;4.80;;
51479;SDS011;37556;44.570;18.612;2023-01-16T06:15:30;3.95;;;3.58;;
51479;SDS011;37556;44.570;18.612;2023-01-16T06:17:56;2.75;;;2.60;;
51479;SDS011;37556;44.570;18.612;2023-01-16T06:20:22;3.83;;;3.53;;
51479;SDS011;37556;44.570;18.612;2023-01-16T06:22:49;4.72;;;2.67;;
51479;SDS011;37556;44.570;18.612;2023-01-16T06:25:15;1.55;;;1.42;;
51479;SDS011;37556;44.570;18.612;2023-01-16T06:27:41;5.25;;;3.33;;
51479;SDS011;37556;44.570;18.612;2023-01-16T06:30:07;5.03;;;4.30;;
51479;SDS011;37556;44.570;18.612;2023-01-16T06:32:33;19.50;;;3.65;;
51479;SDS011;37556;44.570;18.612;2023-01-16T06:35:00;3.97;;;3.20;;
51479;SDS011;37556;44.570;18.612;2023-01-16T06:37:26;3.00;;;2.88;;
51479;SDS011;37556;44.570;18.612;2023-01-16T06:39:52;11.95;;;4.10;;
51479;SDS011;37556;44.570;18.612;2023-01-16T06:42:21;4.32;;;2.83;;
51479;SDS011;37556;44.570;18.612;2023-01-16T06:44:47;7.53;;;4.28;;
51479;SDS011;37556;44.570;18.612;2023-01-16T06:47:13;5.03;;;2.97;;
51479;SDS011;37556;44.570;18.612;2023-01-16T06:49:41;5.43;;;4.38;;
51479;SDS011;37556;44.570;18.612;2023-01-16T06:52:07;5.88;;;3.20;;
51479;SDS011;37556;44.570;18.612;2023-01-16T06:54:33;6.97;;;4.35;;
51479;SDS011;37556;44.570;18.612;2023-01-16T06:56:59;10.85;;;5.95;;
51479;SDS011;37556;44.570;18.612;2023-01-16T06:59:25;14.00;;;7.40;;
51479;SDS011;37556;44.570;18.612;2023-01-16T07:01:51;6.50;;;4.65;;
51479;SDS011;37556;44.570;18.612;2023-01-16T07:04:18;15.30;;;6.50;;
51479;SDS011;37556;44.570;18.612;2023-01-16T07:06:44;10.27;;;5.57;;
51479;SDS011;37556;44.570;18.612;2023-01-16T07:09:10;3.03;;;2.72;;
51479;SDS011;37556;44.570;18.612;2023-01-16T07:11:36;10.18;;;4.43;;
51479;SDS011;37556;44.570;18.612;2023-01-16T07:14:02;7.60;;;6.45;;
51479;SDS011;37556;44.570;18.612;2023-01-16T07:16:47;22.60;;;6.82;;
51479;SDS011;37556;44.570;18.612;2023-01-16T07:19:32;11.50;;;7.60;;
51479;SDS011;37556;44.570;18.612;2023-01-16T07:22:17;8.20;;;5.57;;
51479;SDS011;37556;44.570;18.612;2023-01-16T07:25:02;6.63;;;5.50;;
51479;SDS011;37556;44.570;18.612;2023-01-16T07:27:31;7.22;;;6.50;;
51479;SDS011;37556;44.570;18.612;2023-01-16T07:29:57;8.02;;;5.18;;
51479;SDS011;37556;44.570;18.612;2023-01-16T07:32:23;21.90;;;11.43;;
51479;SDS011;37556;44.570;18.612;2023-01-16T07:37:15;11.60;;;9.48;;
51479;SDS011;37556;44.570;18.612;2023-01-16T07:39:42;12.95;;;10.05;;
51479;SDS011;37556;44.570;18.612;2023-01-16T07:42:08;9.85;;;8.30;;
51479;SDS011;37556;44.570;18.612;2023-01-16T07:44:35;14.65;;;10.45;;
51479;SDS011;37556;44.570;18.612;2023-01-16T07:47:01;17.70;;;10.02;;
51479;SDS011;37556;44.570;18.612;2023-01-16T07:49:27;18.33;;;13.35;;
51479;SDS011;37556;44.570;18.612;2023-01-16T07:51:54;21.58;;;11.15;;
51479;SDS011;37556;44.570;18.612;2023-01-16T07:54:20;23.70;;;13.65;;
51479;SDS011;37556;44.570;18.612;2023-01-16T07:56:49;16.92;;;11.65;;
51479;SDS011;37556;44.570;18.612;2023-01-16T07:59:15;21.73;;;16.13;;
51479;SDS011;37556;44.570;18.612;2023-01-16T08:01:42;26.38;;;16.33;;
51479;SDS011;37556;44.570;18.612;2023-01-16T08:04:10;13.57;;;10.18;;
51479;SDS011;37556;44.570;18.612;2023-01-16T08:06:36;28.45;;;13.80;;
51479;SDS011;37556;44.570;18.612;2023-01-16T08:09:07;27.75;;;16.45;;
51479;SDS011;37556;44.570;18.612;2023-01-16T08:11:33;17.70;;;12.27;;
51479;SDS011;37556;44.570;18.612;2023-01-16T08:14:11;18.95;;;12.88;;
51479;SDS011;37556;44.570;18.612;2023-01-16T08:16:37;22.63;;;12.82;;
51479;SDS011;37556;44.570;18.612;2023-01-16T08:19:03;11.77;;;10.52;;
51479;SDS011;37556;44.570;18.612;2023-01-16T08:21:31;19.52;;;14.38;;
51479;SDS011;37556;44.570;18.612;2023-01-16T08:23:57;19.85;;;14.98;;
51479;SDS011;37556;44.570;18.612;2023-01-16T08:26:33;28.80;;;15.23;;
51479;SDS011;37556;44.570;18.612;2023-01-16T08:29:00;31.40;;;16.48;;
51479;SDS011;37556;44.570;18.612;2023-01-16T08:31:27;19.23;;;15.95;;
51479;SDS011;37556;44.570;18.612;2023-01-16T08:33:53;30.75;;;19.83;;
51479;SDS011;37556;44.570;18.612;2023-01-16T08:38:46;30.08;;;15.80;;
51479;SDS011;37556;44.570;18.612;2023-01-16T08:41:13;29.90;;;18.60;;
51479;SDS011;37556;44.570;18.612;2023-01-16T08:43:57;32.60;;;22.00;;
51479;SDS011;37556;44.570;18.612;2023-01-16T08:46:43;46.15;;;19.40;;
51479;SDS011;37556;44.570;18.612;2023-01-16T08:49:28;27.52;;;17.77;;
51479;SDS011;37556;44.570;18.612;2023-01-16T08:52:13;25.50;;;17.73;;
51479;SDS011;37556;44.570;18.612;2023-01-16T08:54:39;20.77;;;14.38;;
51479;SDS011;37556;44.570;18.612;2023-01-16T08:57:05;26.05;;;19.52;;
51479;SDS011;37556;44.570;18.612;2023-01-16T08:59:31;27.98;;;17.40;;
51479;SDS011;37556;44.570;18.612;2023-01-16T09:02:01;36.97;;;18.52;;
51479;SDS011;37556;44.570;18.612;2023-01-16T09:04:28;36.60;;;16.55;;
51479;SDS011;37556;44.570;18.612;2023-01-16T09:06:54;39.22;;;20.80;;
51479;SDS011;37556;44.570;18.612;2023-01-16T09:09:21;22.83;;;18.20;;
51479;SDS011;37556;44.570;18.612;2023-01-16T09:11:52;15.70;;;11.15;;
51479;SDS011;37556;44.570;18.612;2023-01-16T09:14:38;28.17;;;14.35;;
51479;SDS011;37556;44.570;18.612;2023-01-16T09:17:04;38.78;;;20.90;;
51479;SDS011;37556;44.570;18.612;2023-01-16T09:19:31;49.33;;;23.02;;
51479;SDS011;37556;44.570;18.612;2023-01-16T09:21:58;35.53;;;21.70;;
51479;SDS011;37556;44.570;18.612;2023-01-16T09:24:24;32.00;;;19.88;;
51479;SDS011;37556;44.570;18.612;2023-01-16T09:26:50;50.10;;;19.63;;
51479;SDS011;37556;44.570;18.612;2023-01-16T09:29:16;39.40;;;22.75;;
51479;SDS011;37556;44.570;18.612;2023-01-16T09:31:42;58.70;;;23.83;;
51479;SDS011;37556;44.570;18.612;2023-01-16T09:34:09;45.25;;;19.00;;
51479;SDS011;37556;44.570;18.612;2023-01-16T09:36:36;39.85;;;18.48;;
51479;SDS011;37556;44.570;18.612;2023-01-16T09:39:02;31.20;;;22.50;;
51479;SDS011;37556;44.570;18.612;2023-01-16T09:41:29;35.33;;;23.15;;
51479;SDS011;37556;44.570;18.612;2023-01-16T09:44:16;33.45;;;18.73;;
51479;SDS011;37556;44.570;18.612;2023-01-16T09:46:47;28.42;;;16.10;;
51479;SDS011;37556;44.570;18.612;2023-01-16T09:51:55;41.13;;;22.55;;
51479;SDS011;37556;44.570;18.612;2023-01-16T09:54:58;25.02;;;14.68;;
51479;SDS011;37556;44.570;18.612;2023-01-16T09:57:45;37.97;;;11.90;;
51479;SDS011;37556;44.570;18.612;2023-01-16T10:00:31;29.88;;;12.98;;
51479;SDS011;37556;44.570;18.612;2023-01-16T10:02:59;5.75;;;5.18;;
51479;SDS011;37556;44.570;18.612;2023-01-16T10:05:28;7.45;;;6.75;;
51479;SDS011;37556;44.570;18.612;2023-01-16T10:08:09;2.83;;;2.20;;
51479;SDS011;37556;44.570;18.612;2023-01-16T10:18:34;0.60;;;0.60;;
51479;SDS011;37556;44.570;18.612;2023-01-16T10:26:12;0.03;;;0.03;;
51479;SDS011;37556;44.570;18.612;2023-01-16T10:31:16;0.77;;;0.77;;
51479;SDS011;37556;44.570;18.612;2023-01-16T10:36:21;1.42;;;1.35;;
51479;SDS011;37556;44.570;18.612;2023-01-16T10:38:48;2.25;;;1.30;;
51479;SDS011;37556;44.570;18.612;2023-01-16T10:41:21;0.80;;;0.40;;
51479;SDS011;37556;44.570;18.612;2023-01-16T10:47:10;2.03;;;1.50;;
51479;SDS011;37556;44.570;18.612;2023-01-16T10:49:55;0.75;;;0.75;;
51479;SDS011;37556;44.570;18.612;2023-01-16T10:54:49;1.65;;;1.00;;
51479;SDS011;37556;44.570;18.612;2023-01-16T10:57:16;2.20;;;1.58;;
51479;SDS011;37556;44.570;18.612;2023-01-16T10:59:43;0.82;;;0.82;;
51479;SDS011;37556;44.570;18.612;2023-01-16T11:02:15;1.02;;;0.98;;
51479;SDS011;37556;44.570;18.612;2023-01-16T11:04:43;1.65;;;0.50;;
51479;SDS011;37556;44.570;18.612;2023-01-16T11:07:18;1.45;;;1.42;;
51479;SDS011;37556;44.570;18.612;2023-01-16T11:09:45;0.60;;;0.60;;
51479;SDS011;37556;44.570;18.612;2023-01-16T11:12:21;1.42;;;1.33;;
51479;SDS011;37556;44.570;18.612;2023-01-16T11:18:02;1.00;;;0.68;;
51479;SDS011;37556;44.570;18.612;2023-01-16T11:20:55;2.20;;;0.85;;
51479;SDS011;37556;44.570;18.612;2023-01-16T11:23:23;3.38;;;1.60;;
51479;SDS011;37556;44.570;18.612;2023-01-16T11:25:51;0.93;;;0.93;;
51479;SDS011;37556;44.570;18.612;2023-01-16T11:28:24;0.30;;;0.30;;
51479;SDS011;37556;44.570;18.612;2023-01-16T11:31:23;1.15;;;0.80;;
51479;SDS011;37556;44.570;18.612;2023-01-16T11:33:51;1.60;;;0.82;;
51479;SDS011;37556;44.570;18.612;2023-01-16T11:36:25;3.65;;;0.60;;
51479;SDS011;37556;44.570;18.612;2023-01-16T11:38:51;1.08;;;1.08;;
51479;SDS011;37556;44.570;18.612;2023-01-16T11:41:20;0.15;;;0.15;;
51479;SDS011;37556;44.570;18.612;2023-01-16T11:44:03;0.47;;;0.30;;
51479;SDS011;37556;44.570;18.612;2023-01-16T11:46:55;0.32;;;0.32;;
51479;SDS011;37556;44.570;18.612;2023-01-16T11:49:24;0.40;;;0.40;;
51479;SDS011;37556;44.570;18.612;2023-01-16T11:51:53;0.38;;;0.32;;
51479;SDS011;37556;44.570;18.612;2023-01-16T11:54:33;1.27;;;1.27;;
51479;SDS011;37556;44.570;18.612;2023-01-16T12:02:27;3.42;;;2.00;;
51479;SDS011;37556;44.570;18.612;2023-01-16T12:05:13;1.75;;;0.85;;
51479;SDS011;37556;44.570;18.612;2023-01-16T12:11:01;3.30;;;0.95;;
51479;SDS011;37556;44.570;18.612;2023-01-16T12:13:47;1.67;;;1.55;;
51479;SDS011;37556;44.570;18.612;2023-01-16T12:16:43;5.18;;;3.05;;
51479;SDS011;37556;44.570;18.612;2023-01-16T12:21:49;2.92;;;1.83;;
51479;SDS011;37556;44.570;18.612;2023-01-16T12:31:55;10.38;;;3.75;;
51479;SDS011;37556;44.570;18.612;2023-01-16T12:42:17;4.78;;;2.17;;
51479;SDS011;37556;44.570;18.612;2023-01-16T12:47:40;1.35;;;1.35;;
51479;SDS011;37556;44.570;18.612;2023-01-16T12:55:39;9.18;;;4.03;;
51479;SDS011;37556;44.570;18.612;2023-01-16T12:58:13;11.57;;;3.97;;
51479;SDS011;37556;44.570;18.612;2023-01-16T13:05:55;9.57;;;3.92;;
51479;SDS011;37556;44.570;18.612;2023-01-16T13:08:25;21.30;;;7.80;;
51479;SDS011;37556;44.570;18.612;2023-01-16T13:10:56;5.60;;;5.07;;
51479;SDS011;37556;44.570;18.612;2023-01-16T13:16:10;6.13;;;4.13;;
51479;SDS011;37556;44.570;18.612;2023-01-16T13:18:40;5.88;;;4.95;;
51479;SDS011;37556;44.570;18.612;2023-01-16T13:21:11;2.30;;;2.13;;
51479;SDS011;37556;44.570;18.612;2023-01-16T13:26:11;16.35;;;8.88;;
51479;SDS011;37556;44.570;18.612;2023-01-16T13:31:11;4.07;;;3.10;;
51479;SDS011;37556;44.570;18.612;2023-01-16T13:33:40;6.75;;;3.20;;
51479;SDS011;37556;44.570;18.612;2023-01-16T13:44:12;1.88;;;1.77;;
51479;SDS011;37556;44.570;18.612;2023-01-16T13:46:51;1.80;;;1.67;;
51479;SDS011;37556;44.570;18.612;2023-01-16T13:49:21;3.03;;;1.02;;
51479;SDS011;37556;44.570;18.612;2023-01-16T13:51:48;2.78;;;2.58;;
51479;SDS011;37556;44.570;18.612;2023-01-16T13:54:27;6.38;;;4.28;;
51479;SDS011;37556;44.570;18.612;2023-01-16T13:57:02;3.35;;;1.85;;
51479;SDS011;37556;44.570;18.612;2023-01-16T13:59:46;12.63;;;4.30;;
51479;SDS011;37556;44.570;18.612;2023-01-16T14:02:24;3.78;;;1.58;;
51479;SDS011;37556;44.570;18.612;2023-01-16T14:13:14;2.30;;;2.10;;
51479;SDS011;37556;44.570;18.612;2023-01-16T14:18:38;1.35;;;1.08;;
51479;SDS011;37556;44.570;18.612;2023-01-16T14:21:09;7.78;;;4.88;;
51479;SDS011;37556;44.570;18.612;2023-01-16T14:23:36;2.80;;;2.70;;
51479;SDS011;37556;44.570;18.612;2023-01-16T14:26:32;4.53;;;3.15;;
51479;SDS011;37556;44.570;18.612;2023-01-16T14:29:00;0.90;;;0.90;;
51479;SDS011;37556;44.570;18.612;2023-01-16T14:31:28;1.48;;;1.25;;
51479;SDS011;37556;44.570;18.612;2023-01-16T14:33:56;2.83;;;1.58;;
51479;SDS011;37556;44.570;18.612;2023-01-16T14:36:23;4.25;;;2.83;;
51479;SDS011;37556;44.570;18.612;2023-01-16T14:38:50;1.95;;;1.35;;
51479;SDS011;37556;44.570;18.612;2023-01-16T14:41:18;2.58;;;2.38;;
51479;SDS011;37556;44.570;18.612;2023-01-16T14:47:08;4.60;;;3.15;;
51479;SDS011;37556;44.570;18.612;2023-01-16T14:55:33;5.75;;;4.43;;
51479;SDS011;37556;44.570;18.612;2023-01-16T14:58:05;7.55;;;4.13;;
51479;SDS011;37556;44.570;18.612;2023-01-16T15:00:32;4.07;;;3.78;;
51479;SDS011;37556;44.570;18.612;2023-01-16T15:03:04;7.10;;;3.25;;
51479;SDS011;37556;44.570;18.612;2023-01-16T15:10:49;7.63;;;5.45;;
51479;SDS011;37556;44.570;18.612;2023-01-16T15:13:21;5.78;;;4.03;;
51479;SDS011;37556;44.570;18.612;2023-01-16T15:16:06;4.38;;;1.95;;
51479;SDS011;37556;44.570;18.612;2023-01-16T15:21:20;3.47;;;2.15;;
51479;SDS011;37556;44.570;18.612;2023-01-16T15:24:06;2.55;;;2.35;;
51479;SDS011;37556;44.570;18.612;2023-01-16T15:31:53;3.97;;;2.42;;
51479;SDS011;37556;44.570;18.612;2023-01-16T15:34:26;1.95;;;1.85;;
51479;SDS011;37556;44.570;18.612;2023-01-16T15:36:53;4.60;;;4.15;;
51479;SDS011;37556;44.570;18.612;2023-01-16T15:39:32;6.30;;;3.50;;
51479;SDS011;37556;44.570;18.612;2023-01-16T15:42:13;5.20;;;4.82;;
51479;SDS011;37556;44.570;18.612;2023-01-16T15:45:00;6.13;;;4.25;;
51479;SDS011;37556;44.570;18.612;2023-01-16T15:50:32;4.18;;;3.78;;
51479;SDS011;37556;44.570;18.612;2023-01-16T15:52:59;8.90;;;6.13;;
51479;SDS011;37556;44.570;18.612;2023-01-16T15:55:30;4.97;;;3.92;;
51479;SDS011;37556;44.570;18.612;2023-01-16T15:58:02;5.32;;;4.32;;
51479;SDS011;37556;44.570;18.612;2023-01-16T16:00:33;3.53;;;3.20;;
51479;SDS011;37556;44.570;18.612;2023-01-16T16:03:04;9.18;;;4.18;;
51479;SDS011;37556;44.570;18.612;2023-01-16T16:05:35;9.00;;;2.75;;
51479;SDS011;37556;44.570;18.612;2023-01-16T16:08:02;4.75;;;3.33;;
51479;SDS011;37556;44.570;18.612;2023-01-16T16:10:29;8.75;;;4.68;;
51479;SDS011;37556;44.570;18.612;2023-01-16T16:13:16;3.15;;;2.95;;
51479;SDS011;37556;44.570;18.612;2023-01-16T16:16:04;5.03;;;3.88;;
51479;SDS011;37556;44.570;18.612;2023-01-16T16:18:58;6.68;;;4.63;;
51479;SDS011;37556;44.570;18.612;2023-01-16T16:21:47;10.05;;;6.47;;
51479;SDS011;37556;44.570;18.612;2023-01-16T16:24:33;4.15;;;3.30;;
51479;SDS011;37556;44.570;18.612;2023-01-16T16:27:04;3.88;;;3.58;;
51479;SDS011;37556;44.570;18.612;2023-01-16T16:29:31;2.72;;;2.53;;
51479;SDS011;37556;44.570;18.612;2023-01-16T16:32:01;4.65;;;3.90;;
51479;SDS011;37556;44.570;18.612;2023-01-16T16:34:28;26.27;;;5.47;;
51479;SDS011;37556;44.570;18.612;2023-01-16T16:36:58;2.70;;;2.28;;
51479;SDS011;37556;44.570;18.612;2023-01-16T16:39:44;5.22;;;3.33;;
51479;SDS011;37556;44.570;18.612;2023-01-16T16:47:37;5.85;;;3.63;;
51479;SDS011;37556;44.570;18.612;2023-01-16T16:52:52;11.43;;;6.55;;
51479;SDS011;37556;44.570;18.612;2023-01-16T16:55:30;15.45;;;7.10;;
51479;SDS011;37556;44.570;18.612;2023-01-16T16:57:57;10.40;;;6.60;;
51479;SDS011;37556;44.570;18.612;2023-01-16T17:00:27;7.47;;;4.40;;
51479;SDS011;37556;44.570;18.612;2023-01-16T17:03:00;8.18;;;7.40;;
51479;SDS011;37556;44.570;18.612;2023-01-16T17:05:27;15.52;;;12.77;;
51479;SDS011;37556;44.570;18.612;2023-01-16T17:07:53;13.20;;;7.82;;
51479;SDS011;37556;44.570;18.612;2023-01-16T17:10:21;7.20;;;6.05;;
51479;SDS011;37556;44.570;18.612;2023-01-16T17:12:47;8.15;;;6.90;;
51479;SDS011;37556;44.570;18.612;2023-01-16T17:15:14;10.65;;;7.32;;
51479;SDS011;37556;44.570;18.612;2023-01-16T17:17:43;13.88;;;10.25;;
51479;SDS011;37556;44.570;18.612;2023-01-16T17:20:17;10.45;;;8.73;;
51479;SDS011;37556;44.570;18.612;2023-01-16T17:22:43;7.68;;;6.63;;
51479;SDS011;37556;44.570;18.612;2023-01-16T17:25:11;18.92;;;10.00;;
51479;SDS011;37556;44.570;18.612;2023-01-16T17:27:48;12.15;;;8.75;;
51479;SDS011;37556;44.570;18.612;2023-01-16T17:30:15;29.25;;;11.20;;
51479;SDS011;37556;44.570;18.612;2023-01-16T17:32:41;17.13;;;11.88;;
51479;SDS011;37556;44.570;18.612;2023-01-16T17:35:12;17.92;;;12.07;;
51479;SDS011;37556;44.570;18.612;2023-01-16T17:37:38;23.63;;;12.43;;
51479;SDS011;37556;44.570;18.612;2023-01-16T17:40:05;11.77;;;10.23;;
51479;SDS011;37556;44.570;18.612;2023-01-16T17:42:32;8.68;;;6.70;;
51479;SDS011;37556;44.570;18.612;2023-01-16T17:45:34;19.58;;;13.05;;
51479;SDS011;37556;44.570;18.612;2023-01-16T17:48:25;18.45;;;11.73;;
51479;SDS011;37556;44.570;18.612;2023-01-16T17:50:52;8.95;;;6.20;;
51479;SDS011;37556;44.570;18.612;2023-01-16T17:53:19;12.40;;;9.18;;
51479;SDS011;37556;44.570;18.612;2023-01-16T17:55:46;12.27;;;9.90;;